sensor_id;sensor_type;location;lat;lon;timestamp;temperature;humidity
1405;DHT22;697;51.114;6.542;2024-01-30T00:00:50;9.50;99.90
1405;DHT22;697;51.114;6.542;2024-01-30T00:03:18;9.50;99.90
1405;DHT22;697;51.114;6.542;2024-01-30T00:05:45;9.50;99.90
1405;DHT22;697;51.114;6.542;2024-01-30T00:08:12;9.50;99.90
1405;DHT22;697;51.114;6.542;2024-01-30T00:10:38;9.50;99.90
1405;DHT22;697;51.114;6.542;2024-01-30T00:13:06;9.50;99.90
1405;DHT22;697;51.114;6.542;2024-01-30T00:15:33;9.50;99.90
1405;DHT22;697;51.114;6.542;2024-01-30T00:18:00;9.50;99.90
1405;DHT22;697;51.114;6.542;2024-01-30T00:20:28;9.50;99.90
1405;DHT22;697;51.114;6.542;2024-01-30T00:22:55;9.40;99.90
1405;DHT22;697;51.114;6.542;2024-01-30T00:25:22;9.40;99.90
1405;DHT22;697;51.114;6.542;2024-01-30T00:27:48;9.40;99.90
1405;DHT22;697;51.114;6.542;2024-01-30T00:30:15;9.40;99.90
1405;DHT22;697;51.114;6.542;2024-01-30T00:32:42;9.40;99.90
1405;DHT22;697;51.114;6.542;2024-01-30T00:35:09;9.40;99.90
1405;DHT22;697;51.114;6.542;2024-01-30T00:37:37;9.40;99.90
1405;DHT22;697;51.114;6.542;2024-01-30T00:40:05;9.40;99.90
1405;DHT22;697;51.114;6.542;2024-01-30T00:42:32;9.40;99.90
1405;DHT22;697;51.114;6.542;2024-01-30T00:44:58;9.40;99.90
1405;DHT22;697;51.114;6.542;2024-01-30T00:47:25;9.30;99.90
1405;DHT22;697;51.114;6.542;2024-01-30T00:49:52;9.30;99.90
1405;DHT22;697;51.114;6.542;2024-01-30T00:52:18;9.30;99.90
1405;DHT22;697;51.114;6.542;2024-01-30T00:54:46;9.30;99.90
1405;DHT22;697;51.114;6.542;2024-01-30T00:57:13;9.30;99.90
1405;DHT22;697;51.114;6.542;2024-01-30T00:59:40;9.30;99.90
1405;DHT22;697;51.114;6.542;2024-01-30T01:02:06;9.30;99.90
1405;DHT22;697;51.114;6.542;2024-01-30T01:04:33;9.30;99.90
1405;DHT22;697;51.114;6.542;2024-01-30T01:07:00;9.30;99.90
1405;DHT22;697;51.114;6.542;2024-01-30T01:09:27;9.30;99.90
1405;DHT22;697;51.114;6.542;2024-01-30T01:11:55;9.30;99.90
1405;DHT22;697;51.114;6.542;2024-01-30T01:14:21;9.30;99.90
1405;DHT22;697;51.114;6.542;2024-01-30T01:16:48;9.30;99.90
1405;DHT22;697;51.114;6.542;2024-01-30T01:19:15;9.30;99.90
1405;DHT22;697;51.114;6.542;2024-01-30T01:21:41;9.30;99.90
1405;DHT22;697;51.114;6.542;2024-01-30T01:24:09;9.30;99.90
1405;DHT22;697;51.114;6.542;2024-01-30T01:26:35;9.30;99.90
1405;DHT22;697;51.114;6.542;2024-01-30T01:29:03;9.30;99.90
1405;DHT22;697;51.114;6.542;2024-01-30T01:31:35;9.30;99.90
1405;DHT22;697;51.114;6.542;2024-01-30T01:34:05;9.20;99.90
1405;DHT22;697;51.114;6.542;2024-01-30T01:36:32;9.20;99.90
1405;DHT22;697;51.114;6.542;2024-01-30T01:38:58;9.20;99.90
1405;DHT22;697;51.114;6.542;2024-01-30T01:41:25;9.20;99.90
1405;DHT22;697;51.114;6.542;2024-01-30T01:43:56;9.20;99.90
1405;DHT22;697;51.114;6.542;2024-01-30T01:46:26;9.20;99.90
1405;DHT22;697;51.114;6.542;2024-01-30T01:48:53;9.20;99.90
1405;DHT22;697;51.114;6.542;2024-01-30T01:51:20;9.20;99.90
1405;DHT22;697;51.114;6.542;2024-01-30T01:53:47;9.20;99.90
1405;DHT22;697;51.114;6.542;2024-01-30T01:56:14;9.20;99.90
1405;DHT22;697;51.114;6.542;2024-01-30T01:58:41;9.20;99.90
1405;DHT22;697;51.114;6.542;2024-01-30T02:01:08;9.20;99.90
1405;DHT22;697;51.114;6.542;2024-01-30T02:03:37;9.20;99.90
1405;DHT22;697;51.114;6.542;2024-01-30T02:06:04;9.20;99.90
1405;DHT22;697;51.114;6.542;2024-01-30T02:08:31;9.20;99.90
1405;DHT22;697;51.114;6.542;2024-01-30T02:10:58;9.20;99.90
1405;DHT22;697;51.114;6.542;2024-01-30T02:13:25;9.20;99.90
1405;DHT22;697;51.114;6.542;2024-01-30T02:15:52;9.20;99.90
1405;DHT22;697;51.114;6.542;2024-01-30T02:18:20;9.20;99.90
1405;DHT22;697;51.114;6.542;2024-01-30T02:20:48;9.20;99.90
1405;DHT22;697;51.114;6.542;2024-01-30T02:23:16;9.20;99.90
1405;DHT22;697;51.114;6.542;2024-01-30T02:25:43;9.20;99.90
1405;DHT22;697;51.114;6.542;2024-01-30T02:28:10;9.20;99.90
1405;DHT22;697;51.114;6.542;2024-01-30T02:30:38;9.20;99.90
1405;DHT22;697;51.114;6.542;2024-01-30T02:33:05;9.20;99.90
1405;DHT22;697;51.114;6.542;2024-01-30T02:35:32;9.20;99.90
1405;DHT22;697;51.114;6.542;2024-01-30T02:37:58;9.20;99.90
1405;DHT22;697;51.114;6.542;2024-01-30T02:40:26;9.10;99.90
1405;DHT22;697;51.114;6.542;2024-01-30T02:42:53;9.10;99.90
1405;DHT22;697;51.114;6.542;2024-01-30T02:45:20;9.20;99.90
1405;DHT22;697;51.114;6.542;2024-01-30T02:47:47;9.20;99.90
1405;DHT22;697;51.114;6.542;2024-01-30T02:50:13;9.20;99.90
1405;DHT22;697;51.114;6.542;2024-01-30T02:52:40;9.20;99.90
1405;DHT22;697;51.114;6.542;2024-01-30T02:55:09;9.20;99.90
1405;DHT22;697;51.114;6.542;2024-01-30T02:57:37;9.10;99.90
1405;DHT22;697;51.114;6.542;2024-01-30T03:00:05;9.10;99.90
1405;DHT22;697;51.114;6.542;2024-01-30T03:02:34;9.10;99.90
1405;DHT22;697;51.114;6.542;2024-01-30T03:05:01;9.10;99.90
1405;DHT22;697;51.114;6.542;2024-01-30T03:07:29;9.10;99.90
1405;DHT22;697;51.114;6.542;2024-01-30T03:09:55;9.10;99.90
1405;DHT22;697;51.114;6.542;2024-01-30T03:12:22;9.10;99.90
1405;DHT22;697;51.114;6.542;2024-01-30T03:14:50;9.10;99.90
1405;DHT22;697;51.114;6.542;2024-01-30T03:17:18;9.10;99.90
1405;DHT22;697;51.114;6.542;2024-01-30T03:19:44;9.10;99.90
1405;DHT22;697;51.114;6.542;2024-01-30T03:22:11;9.10;99.90
1405;DHT22;697;51.114;6.542;2024-01-30T03:24:38;9.10;99.90
1405;DHT22;697;51.114;6.542;2024-01-30T03:27:04;9.10;99.90
1405;DHT22;697;51.114;6.542;2024-01-30T03:29:31;9.10;99.90
1405;DHT22;697;51.114;6.542;2024-01-30T03:31:59;9.10;99.90
1405;DHT22;697;51.114;6.542;2024-01-30T03:34:26;9.10;99.90
1405;DHT22;697;51.114;6.542;2024-01-30T03:36:53;9.10;99.90
1405;DHT22;697;51.114;6.542;2024-01-30T03:39:20;9.10;99.90
1405;DHT22;697;51.114;6.542;2024-01-30T03:41:46;9.10;99.90
1405;DHT22;697;51.114;6.542;2024-01-30T03:44:13;9.10;99.90
1405;DHT22;697;51.114;6.542;2024-01-30T03:46:40;9.10;99.90
1405;DHT22;697;51.114;6.542;2024-01-30T03:49:09;9.10;99.90
1405;DHT22;697;51.114;6.542;2024-01-30T03:51:36;9.00;99.90
1405;DHT22;697;51.114;6.542;2024-01-30T03:54:03;9.00;99.90
1405;DHT22;697;51.114;6.542;2024-01-30T03:56:29;9.00;99.90
1405;DHT22;697;51.114;6.542;2024-01-30T03:58:56;9.00;99.90
1405;DHT22;697;51.114;6.542;2024-01-30T04:01:24;9.00;99.90
1405;DHT22;697;51.114;6.542;2024-01-30T04:03:50;9.00;99.90
1405;DHT22;697;51.114;6.542;2024-01-30T04:06:18;9.00;99.90
1405;DHT22;697;51.114;6.542;2024-01-30T04:08:45;9.00;99.90
1405;DHT22;697;51.114;6.542;2024-01-30T04:11:12;9.00;99.90
1405;DHT22;697;51.114;6.542;2024-01-30T04:13:38;8.90;99.90
1405;DHT22;697;51.114;6.542;2024-01-30T04:16:06;8.90;99.90
1405;DHT22;697;51.114;6.542;2024-01-30T04:18:33;8.90;99.90
1405;DHT22;697;51.114;6.542;2024-01-30T04:20:59;8.90;99.90
1405;DHT22;697;51.114;6.542;2024-01-30T04:23:28;8.90;99.90
1405;DHT22;697;51.114;6.542;2024-01-30T04:25:54;8.90;99.90
1405;DHT22;697;51.114;6.542;2024-01-30T04:28:21;8.90;99.90
1405;DHT22;697;51.114;6.542;2024-01-30T04:30:47;8.90;99.90
1405;DHT22;697;51.114;6.542;2024-01-30T04:33:14;8.90;99.90
1405;DHT22;697;51.114;6.542;2024-01-30T04:35:42;8.90;99.90
1405;DHT22;697;51.114;6.542;2024-01-30T04:38:09;8.90;99.90
1405;DHT22;697;51.114;6.542;2024-01-30T04:40:37;8.90;99.90
1405;DHT22;697;51.114;6.542;2024-01-30T04:43:04;8.90;99.90
1405;DHT22;697;51.114;6.542;2024-01-30T04:45:30;8.80;99.90
1405;DHT22;697;51.114;6.542;2024-01-30T04:47:57;8.80;99.90
1405;DHT22;697;51.114;6.542;2024-01-30T04:50:24;8.80;99.90
1405;DHT22;697;51.114;6.542;2024-01-30T04:52:52;8.80;99.90
1405;DHT22;697;51.114;6.542;2024-01-30T04:55:18;8.80;99.90
1405;DHT22;697;51.114;6.542;2024-01-30T04:57:46;8.80;99.90
1405;DHT22;697;51.114;6.542;2024-01-30T05:00:14;8.80;99.90
1405;DHT22;697;51.114;6.542;2024-01-30T05:02:41;8.80;99.90
1405;DHT22;697;51.114;6.542;2024-01-30T05:05:09;8.80;99.90
1405;DHT22;697;51.114;6.542;2024-01-30T05:07:36;8.80;99.90
1405;DHT22;697;51.114;6.542;2024-01-30T05:10:03;8.90;99.90
1405;DHT22;697;51.114;6.542;2024-01-30T05:12:30;8.90;99.90
1405;DHT22;697;51.114;6.542;2024-01-30T05:14:58;8.90;99.90
1405;DHT22;697;51.114;6.542;2024-01-30T05:17:25;8.90;99.90
1405;DHT22;697;51.114;6.542;2024-01-30T05:19:52;8.90;99.90
1405;DHT22;697;51.114;6.542;2024-01-30T05:22:18;8.90;99.90
1405;DHT22;697;51.114;6.542;2024-01-30T05:24:45;8.90;99.90
1405;DHT22;697;51.114;6.542;2024-01-30T05:27:12;8.90;99.90
1405;DHT22;697;51.114;6.542;2024-01-30T05:29:39;9.00;99.90
1405;DHT22;697;51.114;6.542;2024-01-30T05:32:07;9.00;99.90
1405;DHT22;697;51.114;6.542;2024-01-30T05:34:35;8.90;99.90
1405;DHT22;697;51.114;6.542;2024-01-30T05:37:03;8.90;99.90
1405;DHT22;697;51.114;6.542;2024-01-30T05:39:29;8.90;99.90
1405;DHT22;697;51.114;6.542;2024-01-30T05:41:58;8.90;99.90
1405;DHT22;697;51.114;6.542;2024-01-30T05:44:25;8.90;99.90
1405;DHT22;697;51.114;6.542;2024-01-30T05:46:51;8.90;99.90
1405;DHT22;697;51.114;6.542;2024-01-30T05:49:19;8.90;99.90
1405;DHT22;697;51.114;6.542;2024-01-30T05:51:47;8.90;99.90
1405;DHT22;697;51.114;6.542;2024-01-30T05:54:14;8.90;99.90
1405;DHT22;697;51.114;6.542;2024-01-30T05:56:40;8.90;99.90
1405;DHT22;697;51.114;6.542;2024-01-30T05:59:07;8.90;99.90
1405;DHT22;697;51.114;6.542;2024-01-30T06:01:34;8.90;99.90
1405;DHT22;697;51.114;6.542;2024-01-30T06:04:01;8.90;99.90
1405;DHT22;697;51.114;6.542;2024-01-30T06:06:29;8.90;99.90
1405;DHT22;697;51.114;6.542;2024-01-30T06:08:56;8.90;99.90
1405;DHT22;697;51.114;6.542;2024-01-30T06:11:22;8.90;99.90
1405;DHT22;697;51.114;6.542;2024-01-30T06:13:49;8.90;99.90
1405;DHT22;697;51.114;6.542;2024-01-30T06:16:15;8.90;99.90
1405;DHT22;697;51.114;6.542;2024-01-30T06:18:42;8.90;99.90
1405;DHT22;697;51.114;6.542;2024-01-30T06:21:09;8.90;99.90
1405;DHT22;697;51.114;6.542;2024-01-30T06:23:37;8.90;99.90
1405;DHT22;697;51.114;6.542;2024-01-30T06:26:04;8.90;99.90
1405;DHT22;697;51.114;6.542;2024-01-30T06:28:31;8.90;99.90
1405;DHT22;697;51.114;6.542;2024-01-30T06:30:58;8.90;99.90
1405;DHT22;697;51.114;6.542;2024-01-30T06:33:24;8.90;99.90
1405;DHT22;697;51.114;6.542;2024-01-30T06:35:51;8.90;99.90
1405;DHT22;697;51.114;6.542;2024-01-30T06:38:18;8.90;99.90
1405;DHT22;697;51.114;6.542;2024-01-30T06:40:46;8.90;99.90
1405;DHT22;697;51.114;6.542;2024-01-30T06:43:12;8.90;99.90
1405;DHT22;697;51.114;6.542;2024-01-30T06:45:39;8.80;99.90
1405;DHT22;697;51.114;6.542;2024-01-30T06:48:05;8.90;99.90
1405;DHT22;697;51.114;6.542;2024-01-30T06:50:32;8.90;99.90
1405;DHT22;697;51.114;6.542;2024-01-30T06:52:59;8.90;99.90
1405;DHT22;697;51.114;6.542;2024-01-30T06:55:26;8.80;99.90
1405;DHT22;697;51.114;6.542;2024-01-30T06:57:54;8.80;99.90
1405;DHT22;697;51.114;6.542;2024-01-30T07:00:20;8.80;99.90
1405;DHT22;697;51.114;6.542;2024-01-30T07:02:48;8.80;99.90
1405;DHT22;697;51.114;6.542;2024-01-30T07:05:15;8.80;99.90
1405;DHT22;697;51.114;6.542;2024-01-30T07:07:43;8.80;99.90
1405;DHT22;697;51.114;6.542;2024-01-30T07:10:09;8.80;99.90
1405;DHT22;697;51.114;6.542;2024-01-30T07:12:36;8.80;99.90
1405;DHT22;697;51.114;6.542;2024-01-30T07:15:05;8.80;99.90
1405;DHT22;697;51.114;6.542;2024-01-30T07:17:33;8.80;99.90
1405;DHT22;697;51.114;6.542;2024-01-30T07:20:00;8.80;99.90
1405;DHT22;697;51.114;6.542;2024-01-30T07:22:28;8.70;99.90
1405;DHT22;697;51.114;6.542;2024-01-30T07:24:55;8.80;99.90
1405;DHT22;697;51.114;6.542;2024-01-30T07:27:22;8.80;99.90
1405;DHT22;697;51.114;6.542;2024-01-30T07:29:49;8.80;99.90
1405;DHT22;697;51.114;6.542;2024-01-30T07:32:17;8.80;99.90
1405;DHT22;697;51.114;6.542;2024-01-30T07:34:44;8.80;99.90
1405;DHT22;697;51.114;6.542;2024-01-30T07:37:10;8.80;99.90
1405;DHT22;697;51.114;6.542;2024-01-30T07:39:40;8.80;99.90
1405;DHT22;697;51.114;6.542;2024-01-30T07:42:07;8.80;99.90
1405;DHT22;697;51.114;6.542;2024-01-30T07:44:34;8.80;99.90
1405;DHT22;697;51.114;6.542;2024-01-30T07:47:01;8.80;99.90
1405;DHT22;697;51.114;6.542;2024-01-30T07:49:29;8.90;99.90
1405;DHT22;697;51.114;6.542;2024-01-30T07:51:56;8.90;99.90
1405;DHT22;697;51.114;6.542;2024-01-30T07:54:23;8.90;99.90
1405;DHT22;697;51.114;6.542;2024-01-30T07:56:49;8.90;99.90
1405;DHT22;697;51.114;6.542;2024-01-30T07:59:16;8.90;99.90
1405;DHT22;697;51.114;6.542;2024-01-30T08:01:45;9.00;99.90
1405;DHT22;697;51.114;6.542;2024-01-30T08:04:11;9.00;99.90
1405;DHT22;697;51.114;6.542;2024-01-30T08:06:39;9.00;99.90
1405;DHT22;697;51.114;6.542;2024-01-30T08:09:06;9.00;99.90
1405;DHT22;697;51.114;6.542;2024-01-30T08:11:33;9.10;99.90
1405;DHT22;697;51.114;6.542;2024-01-30T08:13:59;9.10;99.90
1405;DHT22;697;51.114;6.542;2024-01-30T08:16:26;9.10;99.90
1405;DHT22;697;51.114;6.542;2024-01-30T08:18:53;9.20;99.90
1405;DHT22;697;51.114;6.542;2024-01-30T08:21:22;9.20;99.90
1405;DHT22;697;51.114;6.542;2024-01-30T08:23:50;9.20;99.90
1405;DHT22;697;51.114;6.542;2024-01-30T08:26:17;9.30;99.90
1405;DHT22;697;51.114;6.542;2024-01-30T08:28:44;9.30;99.90
1405;DHT22;697;51.114;6.542;2024-01-30T08:31:11;9.40;99.90
1405;DHT22;697;51.114;6.542;2024-01-30T08:33:38;9.40;99.90
1405;DHT22;697;51.114;6.542;2024-01-30T08:36:05;9.40;99.90
1405;DHT22;697;51.114;6.542;2024-01-30T08:38:31;9.50;99.90
1405;DHT22;697;51.114;6.542;2024-01-30T08:40:59;9.50;99.90
1405;DHT22;697;51.114;6.542;2024-01-30T08:43:26;9.50;99.90
1405;DHT22;697;51.114;6.542;2024-01-30T08:45:53;9.50;99.90
1405;DHT22;697;51.114;6.542;2024-01-30T08:48:19;9.50;99.90
1405;DHT22;697;51.114;6.542;2024-01-30T08:50:48;9.60;99.90
1405;DHT22;697;51.114;6.542;2024-01-30T08:53:14;9.60;99.90
1405;DHT22;697;51.114;6.542;2024-01-30T08:55:41;9.60;99.90
1405;DHT22;697;51.114;6.542;2024-01-30T08:58:09;9.60;99.90
1405;DHT22;697;51.114;6.542;2024-01-30T09:00:36;9.70;99.90
1405;DHT22;697;51.114;6.542;2024-01-30T09:03:03;9.70;99.90
1405;DHT22;697;51.114;6.542;2024-01-30T09:05:30;9.70;99.90
1405;DHT22;697;51.114;6.542;2024-01-30T09:07:56;9.80;99.90
1405;DHT22;697;51.114;6.542;2024-01-30T09:10:23;9.80;99.90
1405;DHT22;697;51.114;6.542;2024-01-30T09:12:50;9.90;99.90
1405;DHT22;697;51.114;6.542;2024-01-30T09:15:18;9.90;99.90
1405;DHT22;697;51.114;6.542;2024-01-30T09:17:45;10.00;99.90
1405;DHT22;697;51.114;6.542;2024-01-30T09:20:12;10.00;99.90
1405;DHT22;697;51.114;6.542;2024-01-30T09:22:39;10.10;99.90
1405;DHT22;697;51.114;6.542;2024-01-30T09:25:05;10.10;99.90
1405;DHT22;697;51.114;6.542;2024-01-30T09:27:32;10.10;99.90
1405;DHT22;697;51.114;6.542;2024-01-30T09:29:59;10.20;99.90
1405;DHT22;697;51.114;6.542;2024-01-30T09:32:27;10.20;99.90
1405;DHT22;697;51.114;6.542;2024-01-30T09:34:54;10.30;99.90
1405;DHT22;697;51.114;6.542;2024-01-30T09:37:20;10.30;99.90
1405;DHT22;697;51.114;6.542;2024-01-30T09:39:47;10.30;99.90
1405;DHT22;697;51.114;6.542;2024-01-30T09:42:24;10.40;99.90
1405;DHT22;697;51.114;6.542;2024-01-30T09:44:53;10.40;99.90
1405;DHT22;697;51.114;6.542;2024-01-30T09:47:20;10.40;99.90
1405;DHT22;697;51.114;6.542;2024-01-30T09:49:48;10.50;99.90
1405;DHT22;697;51.114;6.542;2024-01-30T09:52:15;10.50;99.90
1405;DHT22;697;51.114;6.542;2024-01-30T09:54:43;10.60;99.90
1405;DHT22;697;51.114;6.542;2024-01-30T09:57:11;10.60;99.90
1405;DHT22;697;51.114;6.542;2024-01-30T09:59:38;10.70;99.90
1405;DHT22;697;51.114;6.542;2024-01-30T10:02:05;10.80;99.90
1405;DHT22;697;51.114;6.542;2024-01-30T10:04:32;10.90;99.90
1405;DHT22;697;51.114;6.542;2024-01-30T10:07:01;11.00;99.90
1405;DHT22;697;51.114;6.542;2024-01-30T10:09:31;11.10;99.90
1405;DHT22;697;51.114;6.542;2024-01-30T10:11:58;11.20;99.90
1405;DHT22;697;51.114;6.542;2024-01-30T10:14:25;11.30;99.90
1405;DHT22;697;51.114;6.542;2024-01-30T10:16:52;11.40;99.90
1405;DHT22;697;51.114;6.542;2024-01-30T10:19:18;11.40;99.90
1405;DHT22;697;51.114;6.542;2024-01-30T10:21:46;11.50;99.90
1405;DHT22;697;51.114;6.542;2024-01-30T10:24:14;11.50;99.90
1405;DHT22;697;51.114;6.542;2024-01-30T10:26:43;11.60;99.90
1405;DHT22;697;51.114;6.542;2024-01-30T10:29:10;11.60;99.90
1405;DHT22;697;51.114;6.542;2024-01-30T10:31:36;11.70;99.90
1405;DHT22;697;51.114;6.542;2024-01-30T10:34:03;11.80;99.90
1405;DHT22;697;51.114;6.542;2024-01-30T10:36:30;11.90;99.90
1405;DHT22;697;51.114;6.542;2024-01-30T10:39:00;11.90;99.90
1405;DHT22;697;51.114;6.542;2024-01-30T10:41:31;12.00;99.90
1405;DHT22;697;51.114;6.542;2024-01-30T10:44:06;12.00;99.90
1405;DHT22;697;51.114;6.542;2024-01-30T10:46:35;12.10;99.90
1405;DHT22;697;51.114;6.542;2024-01-30T10:49:04;12.10;99.90
1405;DHT22;697;51.114;6.542;2024-01-30T10:51:32;12.10;99.90
1405;DHT22;697;51.114;6.542;2024-01-30T10:53:58;12.20;99.90
1405;DHT22;697;51.114;6.542;2024-01-30T10:56:26;12.20;99.90
1405;DHT22;697;51.114;6.542;2024-01-30T10:58:55;12.30;99.90
1405;DHT22;697;51.114;6.542;2024-01-30T11:01:22;12.30;99.90
1405;DHT22;697;51.114;6.542;2024-01-30T11:03:50;12.40;99.90
1405;DHT22;697;51.114;6.542;2024-01-30T11:06:18;12.40;99.90
1405;DHT22;697;51.114;6.542;2024-01-30T11:08:45;12.50;99.90
1405;DHT22;697;51.114;6.542;2024-01-30T11:11:12;12.60;99.90
1405;DHT22;697;51.114;6.542;2024-01-30T11:13:38;12.70;99.90
1405;DHT22;697;51.114;6.542;2024-01-30T11:16:11;12.80;99.90
1405;DHT22;697;51.114;6.542;2024-01-30T11:18:38;12.80;99.90
1405;DHT22;697;51.114;6.542;2024-01-30T11:21:05;12.80;99.90
1405;DHT22;697;51.114;6.542;2024-01-30T11:23:33;12.90;99.90
1405;DHT22;697;51.114;6.542;2024-01-30T11:26:00;12.90;99.90
1405;DHT22;697;51.114;6.542;2024-01-30T11:28:32;12.90;99.90
1405;DHT22;697;51.114;6.542;2024-01-30T11:31:03;12.90;99.90
1405;DHT22;697;51.114;6.542;2024-01-30T11:33:31;12.90;99.90
1405;DHT22;697;51.114;6.542;2024-01-30T11:35:59;12.90;99.90
1405;DHT22;697;51.114;6.542;2024-01-30T11:38:26;12.90;99.90
1405;DHT22;697;51.114;6.542;2024-01-30T11:40:54;12.90;99.90
1405;DHT22;697;51.114;6.542;2024-01-30T11:43:21;12.90;99.90
1405;DHT22;697;51.114;6.542;2024-01-30T11:45:48;13.00;99.90
1405;DHT22;697;51.114;6.542;2024-01-30T11:48:15;13.00;99.90
1405;DHT22;697;51.114;6.542;2024-01-30T11:50:43;13.00;99.90
1405;DHT22;697;51.114;6.542;2024-01-30T11:53:10;13.00;99.90
1405;DHT22;697;51.114;6.542;2024-01-30T11:55:37;12.90;99.90
1405;DHT22;697;51.114;6.542;2024-01-30T11:58:04;12.90;99.90
1405;DHT22;697;51.114;6.542;2024-01-30T12:00:31;13.00;99.90
1405;DHT22;697;51.114;6.542;2024-01-30T12:02:58;13.00;99.90
1405;DHT22;697;51.114;6.542;2024-01-30T12:05:26;13.00;99.90
1405;DHT22;697;51.114;6.542;2024-01-30T12:07:55;13.00;99.90
1405;DHT22;697;51.114;6.542;2024-01-30T12:10:24;13.00;99.90
1405;DHT22;697;51.114;6.542;2024-01-30T12:12:52;12.90;99.90
1405;DHT22;697;51.114;6.542;2024-01-30T12:15:22;12.90;99.90
1405;DHT22;697;51.114;6.542;2024-01-30T12:17:49;12.90;99.90
1405;DHT22;697;51.114;6.542;2024-01-30T12:20:18;12.90;99.90
1405;DHT22;697;51.114;6.542;2024-01-30T12:22:45;12.90;99.90
1405;DHT22;697;51.114;6.542;2024-01-30T12:25:14;13.00;99.90
1405;DHT22;697;51.114;6.542;2024-01-30T12:27:42;13.00;99.90
1405;DHT22;697;51.114;6.542;2024-01-30T12:30:11;13.10;99.90
1405;DHT22;697;51.114;6.542;2024-01-30T12:32:40;13.10;99.90
1405;DHT22;697;51.114;6.542;2024-01-30T12:35:08;13.10;99.90
1405;DHT22;697;51.114;6.542;2024-01-30T12:37:36;13.10;99.90
1405;DHT22;697;51.114;6.542;2024-01-30T12:40:03;13.10;99.90
1405;DHT22;697;51.114;6.542;2024-01-30T12:42:32;13.10;99.90
1405;DHT22;697;51.114;6.542;2024-01-30T12:44:59;13.10;99.90
1405;DHT22;697;51.114;6.542;2024-01-30T12:47:26;13.00;99.90
1405;DHT22;697;51.114;6.542;2024-01-30T12:49:53;13.00;99.90
1405;DHT22;697;51.114;6.542;2024-01-30T12:52:21;13.00;99.90
1405;DHT22;697;51.114;6.542;2024-01-30T12:54:49;13.00;99.90
1405;DHT22;697;51.114;6.542;2024-01-30T12:57:16;13.00;99.90
1405;DHT22;697;51.114;6.542;2024-01-30T12:59:44;13.00;99.90
1405;DHT22;697;51.114;6.542;2024-01-30T13:02:12;13.00;99.90
1405;DHT22;697;51.114;6.542;2024-01-30T13:04:39;13.00;99.90
1405;DHT22;697;51.114;6.542;2024-01-30T13:07:06;13.00;99.90
1405;DHT22;697;51.114;6.542;2024-01-30T13:09:33;13.00;99.90
1405;DHT22;697;51.114;6.542;2024-01-30T13:12:00;13.00;99.90
1405;DHT22;697;51.114;6.542;2024-01-30T13:14:27;13.00;99.90
1405;DHT22;697;51.114;6.542;2024-01-30T13:16:55;13.00;99.90
1405;DHT22;697;51.114;6.542;2024-01-30T13:19:21;13.00;99.90
1405;DHT22;697;51.114;6.542;2024-01-30T13:21:48;13.00;99.90
1405;DHT22;697;51.114;6.542;2024-01-30T13:24:15;13.00;99.90
1405;DHT22;697;51.114;6.542;2024-01-30T13:26:42;12.90;99.90
1405;DHT22;697;51.114;6.542;2024-01-30T13:29:09;13.00;99.90
1405;DHT22;697;51.114;6.542;2024-01-30T13:31:36;12.90;99.90
1405;DHT22;697;51.114;6.542;2024-01-30T13:34:04;13.00;99.90
1405;DHT22;697;51.114;6.542;2024-01-30T13:36:31;12.90;99.90
1405;DHT22;697;51.114;6.542;2024-01-30T13:38:58;13.00;99.90
1405;DHT22;697;51.114;6.542;2024-01-30T13:41:25;13.00;99.90
1405;DHT22;697;51.114;6.542;2024-01-30T13:43:51;13.10;99.90
1405;DHT22;697;51.114;6.542;2024-01-30T13:46:19;13.10;99.90
1405;DHT22;697;51.114;6.542;2024-01-30T13:48:46;13.10;99.90
1405;DHT22;697;51.114;6.542;2024-01-30T13:51:14;13.20;99.90
1405;DHT22;697;51.114;6.542;2024-01-30T13:53:42;13.30;99.90
1405;DHT22;697;51.114;6.542;2024-01-30T13:56:09;13.40;99.90
1405;DHT22;697;51.114;6.542;2024-01-30T13:58:35;13.40;99.90
1405;DHT22;697;51.114;6.542;2024-01-30T14:01:02;13.40;99.90
1405;DHT22;697;51.114;6.542;2024-01-30T14:03:30;13.40;99.90
1405;DHT22;697;51.114;6.542;2024-01-30T14:05:57;13.40;99.90
1405;DHT22;697;51.114;6.542;2024-01-30T14:08:25;13.40;99.90
1405;DHT22;697;51.114;6.542;2024-01-30T14:10:53;13.30;99.90
1405;DHT22;697;51.114;6.542;2024-01-30T14:13:20;13.30;99.90
1405;DHT22;697;51.114;6.542;2024-01-30T14:15:48;13.40;99.90
1405;DHT22;697;51.114;6.542;2024-01-30T14:18:14;13.50;99.90
1405;DHT22;697;51.114;6.542;2024-01-30T14:20:41;13.60;99.90
1405;DHT22;697;51.114;6.542;2024-01-30T14:23:08;13.60;99.90
1405;DHT22;697;51.114;6.542;2024-01-30T14:25:36;13.60;99.90
1405;DHT22;697;51.114;6.542;2024-01-30T14:28:03;13.60;99.90
1405;DHT22;697;51.114;6.542;2024-01-30T14:30:30;13.50;99.90
1405;DHT22;697;51.114;6.542;2024-01-30T14:32:57;13.50;99.90
1405;DHT22;697;51.114;6.542;2024-01-30T14:35:24;13.50;99.90
1405;DHT22;697;51.114;6.542;2024-01-30T14:37:50;13.40;99.90
1405;DHT22;697;51.114;6.542;2024-01-30T14:40:17;13.30;99.90
1405;DHT22;697;51.114;6.542;2024-01-30T14:42:46;13.30;99.90
1405;DHT22;697;51.114;6.542;2024-01-30T14:45:12;13.20;99.90
1405;DHT22;697;51.114;6.542;2024-01-30T14:47:39;13.20;99.90
1405;DHT22;697;51.114;6.542;2024-01-30T14:50:06;13.20;99.90
1405;DHT22;697;51.114;6.542;2024-01-30T14:52:33;13.10;99.90
1405;DHT22;697;51.114;6.542;2024-01-30T14:55:00;13.10;99.90
1405;DHT22;697;51.114;6.542;2024-01-30T14:57:27;13.10;99.90
1405;DHT22;697;51.114;6.542;2024-01-30T14:59:55;13.10;99.90
1405;DHT22;697;51.114;6.542;2024-01-30T15:02:22;13.00;99.90
1405;DHT22;697;51.114;6.542;2024-01-30T15:04:49;12.90;99.90
1405;DHT22;697;51.114;6.542;2024-01-30T15:07:16;12.80;99.90
1405;DHT22;697;51.114;6.542;2024-01-30T15:09:43;12.70;99.90
1405;DHT22;697;51.114;6.542;2024-01-30T15:12:09;12.60;99.90
1405;DHT22;697;51.114;6.542;2024-01-30T15:14:36;12.60;99.90
1405;DHT22;697;51.114;6.542;2024-01-30T15:17:04;12.50;99.90
1405;DHT22;697;51.114;6.542;2024-01-30T15:19:31;12.40;99.90
1405;DHT22;697;51.114;6.542;2024-01-30T15:21:57;12.40;99.90
1405;DHT22;697;51.114;6.542;2024-01-30T15:24:24;12.30;99.90
1405;DHT22;697;51.114;6.542;2024-01-30T15:26:51;12.30;99.90
1405;DHT22;697;51.114;6.542;2024-01-30T15:29:18;12.40;99.90
1405;DHT22;697;51.114;6.542;2024-01-30T15:31:46;12.30;99.90
1405;DHT22;697;51.114;6.542;2024-01-30T15:34:14;12.20;99.90
1405;DHT22;697;51.114;6.542;2024-01-30T15:36:41;12.20;99.90
1405;DHT22;697;51.114;6.542;2024-01-30T15:39:08;12.10;99.90
1405;DHT22;697;51.114;6.542;2024-01-30T15:41:36;12.10;99.90
1405;DHT22;697;51.114;6.542;2024-01-30T15:44:03;12.10;99.90
1405;DHT22;697;51.114;6.542;2024-01-30T15:46:30;12.10;99.90
1405;DHT22;697;51.114;6.542;2024-01-30T15:48:57;12.10;99.90
1405;DHT22;697;51.114;6.542;2024-01-30T15:51:25;12.20;99.90
1405;DHT22;697;51.114;6.542;2024-01-30T15:53:52;12.10;99.90
1405;DHT22;697;51.114;6.542;2024-01-30T15:56:19;12.10;99.90
1405;DHT22;697;51.114;6.542;2024-01-30T15:58:46;12.10;99.60
1405;DHT22;697;51.114;6.542;2024-01-30T16:01:15;12.00;99.00
1405;DHT22;697;51.114;6.542;2024-01-30T16:03:41;11.90;98.80
1405;DHT22;697;51.114;6.542;2024-01-30T16:06:10;11.80;98.60
1405;DHT22;697;51.114;6.542;2024-01-30T16:08:38;11.70;97.90
1405;DHT22;697;51.114;6.542;2024-01-30T16:11:06;11.70;97.40
1405;DHT22;697;51.114;6.542;2024-01-30T16:13:34;11.60;97.10
1405;DHT22;697;51.114;6.542;2024-01-30T16:16:03;11.60;97.20
1405;DHT22;697;51.114;6.542;2024-01-30T16:18:30;11.50;96.90
1405;DHT22;697;51.114;6.542;2024-01-30T16:20:57;11.50;97.00
1405;DHT22;697;51.114;6.542;2024-01-30T16:23:23;11.50;96.90
1405;DHT22;697;51.114;6.542;2024-01-30T16:25:51;11.40;97.00